sensor_id;sensor_type;location;lat;lon;timestamp;P1;durP1;ratioP1;P2;durP2;ratioP2
15126;SDS011;7664;52.008;4.748;2023-06-14T00:00:04;2.75;;;2.13;;
15126;SDS011;7664;52.008;4.748;2023-06-14T00:02:34;3.50;;;1.92;;
15126;SDS011;7664;52.008;4.748;2023-06-14T00:05:04;4.80;;;2.30;;
15126;SDS011;7664;52.008;4.748;2023-06-14T00:07:33;3.45;;;1.90;;
15126;SDS011;7664;52.008;4.748;2023-06-14T00:10:02;2.30;;;1.65;;
15126;SDS011;7664;52.008;4.748;2023-06-14T00:12:31;4.07;;;2.28;;
15126;SDS011;7664;52.008;4.748;2023-06-14T00:14:59;4.43;;;2.05;;
15126;SDS011;7664;52.008;4.748;2023-06-14T00:17:28;4.57;;;1.75;;
15126;SDS011;7664;52.008;4.748;2023-06-14T00:19:57;2.90;;;2.08;;
15126;SDS011;7664;52.008;4.748;2023-06-14T00:22:28;3.83;;;1.80;;
15126;SDS011;7664;52.008;4.748;2023-06-14T00:24:58;2.72;;;1.90;;
15126;SDS011;7664;52.008;4.748;2023-06-14T00:27:36;3.35;;;2.10;;
15126;SDS011;7664;52.008;4.748;2023-06-14T00:30:05;3.03;;;1.90;;
15126;SDS011;7664;52.008;4.748;2023-06-14T00:32:34;4.07;;;1.73;;
15126;SDS011;7664;52.008;4.748;2023-06-14T00:35:03;3.10;;;2.13;;
15126;SDS011;7664;52.008;4.748;2023-06-14T00:37:33;2.75;;;1.70;;
15126;SDS011;7664;52.008;4.748;2023-06-14T00:40:01;3.25;;;1.92;;
15126;SDS011;7664;52.008;4.748;2023-06-14T00:42:30;2.20;;;1.80;;
15126;SDS011;7664;52.008;4.748;2023-06-14T00:45:00;4.72;;;2.40;;
15126;SDS011;7664;52.008;4.748;2023-06-14T00:47:28;2.55;;;1.77;;
15126;SDS011;7664;52.008;4.748;2023-06-14T00:49:57;3.15;;;1.75;;
15126;SDS011;7664;52.008;4.748;2023-06-14T00:52:26;4.30;;;1.88;;
15126;SDS011;7664;52.008;4.748;2023-06-14T00:54:57;5.32;;;2.28;;
15126;SDS011;7664;52.008;4.748;2023-06-14T00:57:28;3.45;;;1.95;;
15126;SDS011;7664;52.008;4.748;2023-06-14T00:59:57;4.35;;;2.03;;
15126;SDS011;7664;52.008;4.748;2023-06-14T01:02:25;2.97;;;1.88;;
15126;SDS011;7664;52.008;4.748;2023-06-14T01:04:54;3.60;;;2.00;;
15126;SDS011;7664;52.008;4.748;2023-06-14T01:07:25;2.55;;;1.70;;
15126;SDS011;7664;52.008;4.748;2023-06-14T01:10:05;3.60;;;2.15;;
15126;SDS011;7664;52.008;4.748;2023-06-14T01:12:37;3.25;;;1.85;;
15126;SDS011;7664;52.008;4.748;2023-06-14T01:15:07;2.83;;;1.98;;
15126;SDS011;7664;52.008;4.748;2023-06-14T01:17:35;4.15;;;1.83;;
15126;SDS011;7664;52.008;4.748;2023-06-14T01:20:10;9.48;;;2.17;;
15126;SDS011;7664;52.008;4.748;2023-06-14T01:22:50;3.30;;;2.00;;
15126;SDS011;7664;52.008;4.748;2023-06-14T01:25:19;2.58;;;1.60;;
15126;SDS011;7664;52.008;4.748;2023-06-14T01:27:49;3.15;;;1.70;;
15126;SDS011;7664;52.008;4.748;2023-06-14T01:30:18;7.32;;;1.60;;
15126;SDS011;7664;52.008;4.748;2023-06-14T01:32:48;2.92;;;1.90;;
15126;SDS011;7664;52.008;4.748;2023-06-14T01:35:17;4.97;;;2.35;;
15126;SDS011;7664;52.008;4.748;2023-06-14T01:37:47;2.72;;;2.33;;
15126;SDS011;7664;52.008;4.748;2023-06-14T01:40:17;4.18;;;1.95;;
15126;SDS011;7664;52.008;4.748;2023-06-14T01:42:46;2.22;;;1.60;;
15126;SDS011;7664;52.008;4.748;2023-06-14T01:45:14;3.80;;;2.25;;
15126;SDS011;7664;52.008;4.748;2023-06-14T01:47:44;2.45;;;2.15;;
15126;SDS011;7664;52.008;4.748;2023-06-14T01:50:14;4.20;;;2.00;;
15126;SDS011;7664;52.008;4.748;2023-06-14T01:52:44;4.95;;;2.22;;
15126;SDS011;7664;52.008;4.748;2023-06-14T01:55:12;3.67;;;1.90;;
15126;SDS011;7664;52.008;4.748;2023-06-14T01:57:43;2.67;;;1.83;;
15126;SDS011;7664;52.008;4.748;2023-06-14T02:00:12;2.22;;;1.52;;
15126;SDS011;7664;52.008;4.748;2023-06-14T02:02:41;3.15;;;2.35;;
15126;SDS011;7664;52.008;4.748;2023-06-14T02:05:10;3.22;;;2.03;;
15126;SDS011;7664;52.008;4.748;2023-06-14T02:07:40;4.88;;;1.70;;
15126;SDS011;7664;52.008;4.748;2023-06-14T02:10:09;2.35;;;1.85;;
15126;SDS011;7664;52.008;4.748;2023-06-14T02:12:37;2.67;;;1.85;;
15126;SDS011;7664;52.008;4.748;2023-06-14T02:15:08;2.80;;;1.88;;
15126;SDS011;7664;52.008;4.748;2023-06-14T02:17:43;4.18;;;2.10;;
15126;SDS011;7664;52.008;4.748;2023-06-14T02:20:13;3.70;;;1.90;;
15126;SDS011;7664;52.008;4.748;2023-06-14T02:22:42;3.13;;;1.67;;
15126;SDS011;7664;52.008;4.748;2023-06-14T02:25:11;3.83;;;1.85;;
15126;SDS011;7664;52.008;4.748;2023-06-14T02:27:40;4.30;;;2.05;;
15126;SDS011;7664;52.008;4.748;2023-06-14T02:30:11;3.53;;;1.55;;
15126;SDS011;7664;52.008;4.748;2023-06-14T02:32:42;8.15;;;2.05;;
15126;SDS011;7664;52.008;4.748;2023-06-14T02:35:11;4.13;;;2.03;;
15126;SDS011;7664;52.008;4.748;2023-06-14T02:37:40;3.55;;;1.83;;
15126;SDS011;7664;52.008;4.748;2023-06-14T02:40:09;3.80;;;1.40;;
15126;SDS011;7664;52.008;4.748;2023-06-14T02:42:38;3.72;;;1.98;;
15126;SDS011;7664;52.008;4.748;2023-06-14T02:45:07;3.35;;;2.10;;
15126;SDS011;7664;52.008;4.748;2023-06-14T02:47:37;2.47;;;1.83;;
15126;SDS011;7664;52.008;4.748;2023-06-14T02:50:06;2.78;;;1.67;;
15126;SDS011;7664;52.008;4.748;2023-06-14T02:52:34;4.88;;;2.08;;
15126;SDS011;7664;52.008;4.748;2023-06-14T02:55:03;3.88;;;2.03;;
15126;SDS011;7664;52.008;4.748;2023-06-14T02:57:32;4.75;;;2.28;;
15126;SDS011;7664;52.008;4.748;2023-06-14T03:00:01;2.67;;;1.85;;
15126;SDS011;7664;52.008;4.748;2023-06-14T03:02:33;2.80;;;1.83;;
15126;SDS011;7664;52.008;4.748;2023-06-14T03:05:03;8.07;;;2.45;;
15126;SDS011;7664;52.008;4.748;2023-06-14T03:07:34;2.70;;;2.03;;
15126;SDS011;7664;52.008;4.748;2023-06-14T03:10:08;4.30;;;2.25;;
15126;SDS011;7664;52.008;4.748;2023-06-14T03:12:41;5.65;;;1.80;;
15126;SDS011;7664;52.008;4.748;2023-06-14T03:15:11;5.00;;;2.03;;
15126;SDS011;7664;52.008;4.748;2023-06-14T03:17:45;3.72;;;2.30;;
15126;SDS011;7664;52.008;4.748;2023-06-14T03:20:17;5.03;;;2.17;;
15126;SDS011;7664;52.008;4.748;2023-06-14T03:22:46;4.85;;;2.05;;
15126;SDS011;7664;52.008;4.748;2023-06-14T03:25:15;4.43;;;2.30;;
15126;SDS011;7664;52.008;4.748;2023-06-14T03:27:47;7.05;;;2.38;;
15126;SDS011;7664;52.008;4.748;2023-06-14T03:30:16;2.92;;;1.75;;
15126;SDS011;7664;52.008;4.748;2023-06-14T03:32:47;3.58;;;2.10;;
15126;SDS011;7664;52.008;4.748;2023-06-14T03:35:19;4.88;;;2.15;;
15126;SDS011;7664;52.008;4.748;2023-06-14T03:37:48;3.17;;;1.98;;
15126;SDS011;7664;52.008;4.748;2023-06-14T03:40:18;3.20;;;1.88;;
15126;SDS011;7664;52.008;4.748;2023-06-14T03:42:51;5.55;;;2.42;;
15126;SDS011;7664;52.008;4.748;2023-06-14T03:45:20;5.32;;;1.98;;
15126;SDS011;7664;52.008;4.748;2023-06-14T03:47:48;3.10;;;2.15;;
15126;SDS011;7664;52.008;4.748;2023-06-14T03:50:19;2.53;;;1.60;;
15126;SDS011;7664;52.008;4.748;2023-06-14T03:52:48;3.00;;;2.33;;
15126;SDS011;7664;52.008;4.748;2023-06-14T03:55:19;3.45;;;2.45;;
15126;SDS011;7664;52.008;4.748;2023-06-14T03:58:09;3.10;;;2.08;;
15126;SDS011;7664;52.008;4.748;2023-06-14T04:00:37;3.67;;;2.38;;
15126;SDS011;7664;52.008;4.748;2023-06-14T04:03:06;3.88;;;2.20;;
15126;SDS011;7664;52.008;4.748;2023-06-14T04:05:38;3.72;;;2.25;;
15126;SDS011;7664;52.008;4.748;2023-06-14T04:08:08;2.38;;;1.70;;
15126;SDS011;7664;52.008;4.748;2023-06-14T04:10:37;3.20;;;2.08;;
15126;SDS011;7664;52.008;4.748;2023-06-14T04:13:06;3.60;;;2.10;;
15126;SDS011;7664;52.008;4.748;2023-06-14T04:15:38;3.33;;;1.98;;
15126;SDS011;7664;52.008;4.748;2023-06-14T04:18:12;2.90;;;2.22;;
15126;SDS011;7664;52.008;4.748;2023-06-14T04:20:42;2.90;;;1.90;;
15126;SDS011;7664;52.008;4.748;2023-06-14T04:23:11;4.53;;;2.13;;
15126;SDS011;7664;52.008;4.748;2023-06-14T04:25:40;3.38;;;2.05;;
15126;SDS011;7664;52.008;4.748;2023-06-14T04:28:11;3.17;;;2.30;;
15126;SDS011;7664;52.008;4.748;2023-06-14T04:30:42;5.07;;;2.05;;
15126;SDS011;7664;52.008;4.748;2023-06-14T04:33:13;3.00;;;1.83;;
15126;SDS011;7664;52.008;4.748;2023-06-14T04:35:43;3.45;;;1.90;;
15126;SDS011;7664;52.008;4.748;2023-06-14T04:38:15;5.30;;;2.58;;
15126;SDS011;7664;52.008;4.748;2023-06-14T04:40:45;7.63;;;2.33;;
15126;SDS011;7664;52.008;4.748;2023-06-14T04:43:16;3.92;;;1.75;;
15126;SDS011;7664;52.008;4.748;2023-06-14T04:45:56;3.03;;;1.98;;
15126;SDS011;7664;52.008;4.748;2023-06-14T04:48:26;8.90;;;1.95;;
15126;SDS011;7664;52.008;4.748;2023-06-14T04:50:56;4.38;;;1.90;;
15126;SDS011;7664;52.008;4.748;2023-06-14T04:53:25;2.45;;;1.60;;
15126;SDS011;7664;52.008;4.748;2023-06-14T04:55:56;2.90;;;1.80;;
15126;SDS011;7664;52.008;4.748;2023-06-14T04:58:25;3.80;;;2.00;;
15126;SDS011;7664;52.008;4.748;2023-06-14T05:00:54;5.38;;;2.13;;
15126;SDS011;7664;52.008;4.748;2023-06-14T05:03:24;4.90;;;2.53;;
15126;SDS011;7664;52.008;4.748;2023-06-14T05:05:53;3.35;;;2.28;;
15126;SDS011;7664;52.008;4.748;2023-06-14T05:08:23;7.47;;;2.17;;
15126;SDS011;7664;52.008;4.748;2023-06-14T05:10:53;2.35;;;1.83;;
15126;SDS011;7664;52.008;4.748;2023-06-14T05:13:21;8.13;;;2.10;;
15126;SDS011;7664;52.008;4.748;2023-06-14T05:15:49;4.25;;;1.83;;
15126;SDS011;7664;52.008;4.748;2023-06-14T05:18:18;5.32;;;2.10;;
15126;SDS011;7664;52.008;4.748;2023-06-14T05:20:46;6.55;;;1.83;;
15126;SDS011;7664;52.008;4.748;2023-06-14T05:23:15;2.88;;;1.90;;
15126;SDS011;7664;52.008;4.748;2023-06-14T05:25:45;7.47;;;1.90;;
15126;SDS011;7664;52.008;4.748;2023-06-14T05:28:13;4.80;;;1.90;;
15126;SDS011;7664;52.008;4.748;2023-06-14T05:30:42;2.85;;;1.83;;
15126;SDS011;7664;52.008;4.748;2023-06-14T05:33:11;4.68;;;2.08;;
15126;SDS011;7664;52.008;4.748;2023-06-14T05:35:40;5.85;;;2.45;;
15126;SDS011;7664;52.008;4.748;2023-06-14T05:38:08;3.78;;;1.90;;
15126;SDS011;7664;52.008;4.748;2023-06-14T05:40:37;3.00;;;1.98;;
15126;SDS011;7664;52.008;4.748;2023-06-14T05:43:07;2.45;;;1.65;;
15126;SDS011;7664;52.008;4.748;2023-06-14T05:45:36;4.57;;;1.80;;
15126;SDS011;7664;52.008;4.748;2023-06-14T05:48:05;3.15;;;1.67;;
15126;SDS011;7664;52.008;4.748;2023-06-14T05:50:33;3.85;;;1.90;;
15126;SDS011;7664;52.008;4.748;2023-06-14T05:53:02;3.13;;;1.73;;
15126;SDS011;7664;52.008;4.748;2023-06-14T05:55:30;4.40;;;2.08;;
15126;SDS011;7664;52.008;4.748;2023-06-14T05:57:59;5.10;;;1.98;;
15126;SDS011;7664;52.008;4.748;2023-06-14T06:00:29;3.85;;;2.05;;
15126;SDS011;7664;52.008;4.748;2023-06-14T06:02:57;3.83;;;2.03;;
15126;SDS011;7664;52.008;4.748;2023-06-14T06:05:27;4.05;;;1.80;;
15126;SDS011;7664;52.008;4.748;2023-06-14T06:07:56;6.22;;;1.85;;
15126;SDS011;7664;52.008;4.748;2023-06-14T06:10:25;2.85;;;2.00;;
15126;SDS011;7664;52.008;4.748;2023-06-14T06:12:55;3.85;;;1.88;;
15126;SDS011;7664;52.008;4.748;2023-06-14T06:15:25;15.20;;;2.30;;
15126;SDS011;7664;52.008;4.748;2023-06-14T06:17:55;4.43;;;2.03;;
15126;SDS011;7664;52.008;4.748;2023-06-14T06:20:24;2.38;;;1.50;;
15126;SDS011;7664;52.008;4.748;2023-06-14T06:22:56;2.97;;;1.60;;
15126;SDS011;7664;52.008;4.748;2023-06-14T06:25:25;3.60;;;1.67;;
15126;SDS011;7664;52.008;4.748;2023-06-14T06:27:54;2.78;;;1.88;;
15126;SDS011;7664;52.008;4.748;2023-06-14T06:30:23;2.92;;;1.63;;
15126;SDS011;7664;52.008;4.748;2023-06-14T06:32:52;6.57;;;1.98;;
15126;SDS011;7664;52.008;4.748;2023-06-14T06:35:23;4.32;;;1.75;;
15126;SDS011;7664;52.008;4.748;2023-06-14T06:37:52;3.45;;;1.25;;
15126;SDS011;7664;52.008;4.748;2023-06-14T06:40:20;3.30;;;1.70;;
15126;SDS011;7664;52.008;4.748;2023-06-14T06:42:49;2.30;;;1.85;;
15126;SDS011;7664;52.008;4.748;2023-06-14T06:45:18;2.17;;;1.50;;
15126;SDS011;7664;52.008;4.748;2023-06-14T06:47:50;9.95;;;1.92;;
15126;SDS011;7664;52.008;4.748;2023-06-14T06:50:19;2.70;;;1.40;;
15126;SDS011;7664;52.008;4.748;2023-06-14T06:52:50;4.97;;;1.70;;
15126;SDS011;7664;52.008;4.748;2023-06-14T06:55:20;2.70;;;1.80;;
15126;SDS011;7664;52.008;4.748;2023-06-14T06:57:48;4.22;;;1.70;;
15126;SDS011;7664;52.008;4.748;2023-06-14T07:00:19;3.13;;;1.60;;
15126;SDS011;7664;52.008;4.748;2023-06-14T07:02:47;2.25;;;1.60;;
15126;SDS011;7664;52.008;4.748;2023-06-14T07:05:16;2.65;;;1.40;;
15126;SDS011;7664;52.008;4.748;2023-06-14T07:07:45;5.03;;;1.90;;
15126;SDS011;7664;52.008;4.748;2023-06-14T07:10:15;2.83;;;1.40;;
15126;SDS011;7664;52.008;4.748;2023-06-14T07:12:43;3.00;;;1.60;;
15126;SDS011;7664;52.008;4.748;2023-06-14T07:15:12;2.03;;;1.45;;
15126;SDS011;7664;52.008;4.748;2023-06-14T07:17:41;2.15;;;1.65;;
15126;SDS011;7664;52.008;4.748;2023-06-14T07:20:10;5.03;;;1.58;;
15126;SDS011;7664;52.008;4.748;2023-06-14T07:22:39;4.68;;;2.25;;
15126;SDS011;7664;52.008;4.748;2023-06-14T07:25:11;1.88;;;1.48;;
15126;SDS011;7664;52.008;4.748;2023-06-14T07:27:43;2.38;;;1.73;;
15126;SDS011;7664;52.008;4.748;2023-06-14T07:30:12;6.63;;;1.63;;
15126;SDS011;7664;52.008;4.748;2023-06-14T07:32:40;1.52;;;1.17;;
15126;SDS011;7664;52.008;4.748;2023-06-14T07:35:09;5.82;;;2.17;;
15126;SDS011;7664;52.008;4.748;2023-06-14T07:37:37;3.28;;;1.90;;
15126;SDS011;7664;52.008;4.748;2023-06-14T07:40:06;4.05;;;1.90;;
15126;SDS011;7664;52.008;4.748;2023-06-14T07:42:36;4.70;;;2.17;;
15126;SDS011;7664;52.008;4.748;2023-06-14T07:45:07;4.05;;;1.60;;
15126;SDS011;7664;52.008;4.748;2023-06-14T07:47:35;8.43;;;1.50;;
15126;SDS011;7664;52.008;4.748;2023-06-14T07:50:04;5.43;;;1.60;;
15126;SDS011;7664;52.008;4.748;2023-06-14T07:52:35;3.08;;;1.55;;
15126;SDS011;7664;52.008;4.748;2023-06-14T07:55:03;3.88;;;1.73;;
15126;SDS011;7664;52.008;4.748;2023-06-14T07:57:32;2.03;;;1.52;;
15126;SDS011;7664;52.008;4.748;2023-06-14T08:00:01;4.68;;;1.63;;
15126;SDS011;7664;52.008;4.748;2023-06-14T08:02:38;3.92;;;1.67;;
15126;SDS011;7664;52.008;4.748;2023-06-14T08:05:08;2.95;;;1.90;;
15126;SDS011;7664;52.008;4.748;2023-06-14T08:07:37;4.13;;;1.80;;
15126;SDS011;7664;52.008;4.748;2023-06-14T08:10:06;2.10;;;1.40;;
15126;SDS011;7664;52.008;4.748;2023-06-14T08:12:35;2.00;;;1.40;;
15126;SDS011;7664;52.008;4.748;2023-06-14T08:15:03;2.15;;;1.38;;
15126;SDS011;7664;52.008;4.748;2023-06-14T08:17:43;3.67;;;1.83;;
15126;SDS011;7664;52.008;4.748;2023-06-14T08:20:12;2.00;;;1.48;;
15126;SDS011;7664;52.008;4.748;2023-06-14T08:22:42;5.65;;;1.67;;
15126;SDS011;7664;52.008;4.748;2023-06-14T08:25:12;2.88;;;1.33;;
15126;SDS011;7664;52.008;4.748;2023-06-14T08:27:41;1.98;;;1.63;;
15126;SDS011;7664;52.008;4.748;2023-06-14T08:30:11;2.38;;;1.67;;
15126;SDS011;7664;52.008;4.748;2023-06-14T08:32:39;2.53;;;1.48;;
15126;SDS011;7664;52.008;4.748;2023-06-14T08:35:09;1.98;;;1.10;;
15126;SDS011;7664;52.008;4.748;2023-06-14T08:37:39;2.67;;;1.45;;
15126;SDS011;7664;52.008;4.748;2023-06-14T08:40:18;4.65;;;2.03;;
15126;SDS011;7664;52.008;4.748;2023-06-14T08:42:48;4.63;;;1.58;;
15126;SDS011;7664;52.008;4.748;2023-06-14T08:45:18;12.85;;;2.22;;
15126;SDS011;7664;52.008;4.748;2023-06-14T08:47:52;2.30;;;1.60;;
15126;SDS011;7664;52.008;4.748;2023-06-14T08:50:26;3.45;;;1.50;;
15126;SDS011;7664;52.008;4.748;2023-06-14T08:52:57;1.80;;;1.52;;
15126;SDS011;7664;52.008;4.748;2023-06-14T08:55:29;2.83;;;1.27;;
15126;SDS011;7664;52.008;4.748;2023-06-14T08:58:00;3.22;;;1.60;;
15126;SDS011;7664;52.008;4.748;2023-06-14T09:00:30;1.85;;;1.17;;
15126;SDS011;7664;52.008;4.748;2023-06-14T09:03:01;2.83;;;1.30;;
15126;SDS011;7664;52.008;4.748;2023-06-14T09:05:31;1.77;;;1.50;;
15126;SDS011;7664;52.008;4.748;2023-06-14T09:07:59;1.88;;;1.50;;
15126;SDS011;7664;52.008;4.748;2023-06-14T09:10:32;2.17;;;1.40;;
15126;SDS011;7664;52.008;4.748;2023-06-14T09:13:04;1.80;;;1.13;;
15126;SDS011;7664;52.008;4.748;2023-06-14T09:15:33;7.03;;;1.30;;
15126;SDS011;7664;52.008;4.748;2023-06-14T09:18:02;1.60;;;1.25;;
15126;SDS011;7664;52.008;4.748;2023-06-14T09:20:32;5.10;;;1.58;;
15126;SDS011;7664;52.008;4.748;2023-06-14T09:23:00;2.80;;;1.45;;
15126;SDS011;7664;52.008;4.748;2023-06-14T09:25:31;1.40;;;1.10;;
15126;SDS011;7664;52.008;4.748;2023-06-14T09:28:06;2.78;;;1.48;;
15126;SDS011;7664;52.008;4.748;2023-06-14T09:30:37;2.40;;;1.13;;
15126;SDS011;7664;52.008;4.748;2023-06-14T09:33:06;2.22;;;1.42;;
15126;SDS011;7664;52.008;4.748;2023-06-14T09:35:36;4.82;;;1.95;;
15126;SDS011;7664;52.008;4.748;2023-06-14T09:38:05;3.92;;;1.25;;
15126;SDS011;7664;52.008;4.748;2023-06-14T09:40:34;2.05;;;1.40;;
15126;SDS011;7664;52.008;4.748;2023-06-14T09:43:07;4.45;;;1.67;;
15126;SDS011;7664;52.008;4.748;2023-06-14T09:45:38;2.40;;;1.55;;
15126;SDS011;7664;52.008;4.748;2023-06-14T09:48:07;3.33;;;1.50;;
15126;SDS011;7664;52.008;4.748;2023-06-14T09:50:37;2.63;;;1.73;;
15126;SDS011;7664;52.008;4.748;2023-06-14T09:53:07;2.83;;;1.15;;
15126;SDS011;7664;52.008;4.748;2023-06-14T09:55:40;1.73;;;1.20;;
15126;SDS011;7664;52.008;4.748;2023-06-14T09:58:09;2.22;;;1.00;;
15126;SDS011;7664;52.008;4.748;2023-06-14T10:00:39;2.38;;;0.90;;
15126;SDS011;7664;52.008;4.748;2023-06-14T10:03:11;1.33;;;1.00;;
15126;SDS011;7664;52.008;4.748;2023-06-14T10:05:43;1.80;;;1.05;;
15126;SDS011;7664;52.008;4.748;2023-06-14T10:08:13;2.53;;;1.15;;
15126;SDS011;7664;52.008;4.748;2023-06-14T10:10:43;1.48;;;1.05;;
15126;SDS011;7664;52.008;4.748;2023-06-14T10:13:12;2.33;;;1.15;;
15126;SDS011;7664;52.008;4.748;2023-06-14T10:15:42;3.63;;;1.02;;
15126;SDS011;7664;52.008;4.748;2023-06-14T10:18:14;1.90;;;0.90;;
15126;SDS011;7664;52.008;4.748;2023-06-14T10:20:51;2.17;;;1.17;;
15126;SDS011;7664;52.008;4.748;2023-06-14T10:23:21;3.95;;;1.13;;
15126;SDS011;7664;52.008;4.748;2023-06-14T10:25:54;2.08;;;1.27;;
15126;SDS011;7664;52.008;4.748;2023-06-14T10:28:24;1.45;;;1.15;;
15126;SDS011;7664;52.008;4.748;2023-06-14T10:31:06;1.20;;;1.10;;
15126;SDS011;7664;52.008;4.748;2023-06-14T10:33:35;1.08;;;0.70;;
15126;SDS011;7664;52.008;4.748;2023-06-14T10:36:09;3.17;;;1.10;;
15126;SDS011;7664;52.008;4.748;2023-06-14T10:38:37;2.65;;;0.88;;
15126;SDS011;7664;52.008;4.748;2023-06-14T10:41:06;2.05;;;0.88;;
15126;SDS011;7664;52.008;4.748;2023-06-14T10:43:34;0.98;;;0.65;;
15126;SDS011;7664;52.008;4.748;2023-06-14T10:46:16;3.40;;;1.10;;
15126;SDS011;7664;52.008;4.748;2023-06-14T10:48:45;2.13;;;0.93;;
15126;SDS011;7664;52.008;4.748;2023-06-14T10:51:18;1.90;;;0.68;;
15126;SDS011;7664;52.008;4.748;2023-06-14T10:53:48;1.60;;;1.00;;
15126;SDS011;7664;52.008;4.748;2023-06-14T10:56:22;1.23;;;0.70;;
15126;SDS011;7664;52.008;4.748;2023-06-14T10:58:52;1.83;;;0.80;;
15126;SDS011;7664;52.008;4.748;2023-06-14T11:01:26;1.13;;;0.73;;
15126;SDS011;7664;52.008;4.748;2023-06-14T11:04:00;1.00;;;0.90;;
15126;SDS011;7664;52.008;4.748;2023-06-14T11:06:38;1.15;;;0.80;;
15126;SDS011;7664;52.008;4.748;2023-06-14T11:09:19;2.53;;;0.95;;
15126;SDS011;7664;52.008;4.748;2023-06-14T11:11:50;1.23;;;0.70;;
15126;SDS011;7664;52.008;4.748;2023-06-14T11:14:19;1.63;;;0.90;;
15126;SDS011;7664;52.008;4.748;2023-06-14T11:16:48;1.33;;;0.80;;
15126;SDS011;7664;52.008;4.748;2023-06-14T11:19:16;1.98;;;0.90;;
15126;SDS011;7664;52.008;4.748;2023-06-14T11:21:48;1.20;;;0.90;;
15126;SDS011;7664;52.008;4.748;2023-06-14T11:24:16;3.13;;;0.95;;
15126;SDS011;7664;52.008;4.748;2023-06-14T11:26:46;1.38;;;0.80;;
15126;SDS011;7664;52.008;4.748;2023-06-14T11:29:15;1.48;;;0.80;;
15126;SDS011;7664;52.008;4.748;2023-06-14T11:31:44;1.48;;;0.98;;
15126;SDS011;7664;52.008;4.748;2023-06-14T11:34:12;1.48;;;0.80;;
15126;SDS011;7664;52.008;4.748;2023-06-14T11:36:42;2.55;;;0.80;;
15126;SDS011;7664;52.008;4.748;2023-06-14T11:39:11;0.73;;;0.60;;
15126;SDS011;7664;52.008;4.748;2023-06-14T11:41:41;2.30;;;0.82;;
15126;SDS011;7664;52.008;4.748;2023-06-14T11:44:10;1.05;;;0.80;;
15126;SDS011;7664;52.008;4.748;2023-06-14T11:46:39;1.80;;;0.80;;
15126;SDS011;7664;52.008;4.748;2023-06-14T11:49:08;2.28;;;0.80;;
15126;SDS011;7664;52.008;4.748;2023-06-14T11:51:37;1.63;;;0.93;;
15126;SDS011;7664;52.008;4.748;2023-06-14T11:54:06;1.10;;;0.73;;
15126;SDS011;7664;52.008;4.748;2023-06-14T11:56:36;1.75;;;1.00;;
15126;SDS011;7664;52.008;4.748;2023-06-14T11:59:05;1.60;;;0.68;;
15126;SDS011;7664;52.008;4.748;2023-06-14T12:01:37;2.92;;;1.00;;
15126;SDS011;7664;52.008;4.748;2023-06-14T12:04:06;0.93;;;0.80;;
15126;SDS011;7664;52.008;4.748;2023-06-14T12:06:35;1.30;;;0.90;;
15126;SDS011;7664;52.008;4.748;2023-06-14T12:09:07;1.60;;;0.90;;
15126;SDS011;7664;52.008;4.748;2023-06-14T12:11:41;1.73;;;1.17;;
15126;SDS011;7664;52.008;4.748;2023-06-14T12:14:10;0.80;;;0.80;;
15126;SDS011;7664;52.008;4.748;2023-06-14T12:16:39;1.17;;;0.93;;
15126;SDS011;7664;52.008;4.748;2023-06-14T12:19:09;1.80;;;0.90;;
15126;SDS011;7664;52.008;4.748;2023-06-14T12:21:38;0.98;;;0.80;;
15126;SDS011;7664;52.008;4.748;2023-06-14T12:24:07;3.60;;;0.95;;
15126;SDS011;7664;52.008;4.748;2023-06-14T12:26:39;8.60;;;1.25;;
15126;SDS011;7664;52.008;4.748;2023-06-14T12:29:09;2.92;;;0.90;;
15126;SDS011;7664;52.008;4.748;2023-06-14T12:31:39;1.60;;;1.00;;
15126;SDS011;7664;52.008;4.748;2023-06-14T12:34:09;1.63;;;0.80;;
15126;SDS011;7664;52.008;4.748;2023-06-14T12:36:37;2.35;;;1.02;;
15126;SDS011;7664;52.008;4.748;2023-06-14T12:39:11;2.25;;;1.17;;
15126;SDS011;7664;52.008;4.748;2023-06-14T12:41:40;1.65;;;0.80;;
15126;SDS011;7664;52.008;4.748;2023-06-14T12:44:10;2.00;;;0.95;;
15126;SDS011;7664;52.008;4.748;2023-06-14T12:46:38;1.02;;;0.77;;
15126;SDS011;7664;52.008;4.748;2023-06-14T12:49:08;1.30;;;1.00;;
15126;SDS011;7664;52.008;4.748;2023-06-14T12:51:37;1.98;;;0.90;;
15126;SDS011;7664;52.008;4.748;2023-06-14T12:54:05;2.92;;;0.90;;
15126;SDS011;7664;52.008;4.748;2023-06-14T12:56:34;1.58;;;1.38;;
15126;SDS011;7664;52.008;4.748;2023-06-14T12:59:03;3.97;;;1.42;;
15126;SDS011;7664;52.008;4.748;2023-06-14T13:01:34;0.85;;;0.70;;
15126;SDS011;7664;52.008;4.748;2023-06-14T13:04:02;1.73;;;1.20;;
15126;SDS011;7664;52.008;4.748;2023-06-14T13:06:31;1.55;;;0.80;;
15126;SDS011;7664;52.008;4.748;2023-06-14T13:08:59;2.08;;;0.90;;
15126;SDS011;7664;52.008;4.748;2023-06-14T13:11:30;1.15;;;0.70;;
15126;SDS011;7664;52.008;4.748;2023-06-14T13:13:58;1.42;;;1.05;;
15126;SDS011;7664;52.008;4.748;2023-06-14T13:16:44;1.33;;;0.82;;
15126;SDS011;7664;52.008;4.748;2023-06-14T13:19:12;2.33;;;1.00;;
15126;SDS011;7664;52.008;4.748;2023-06-14T13:21:43;1.27;;;1.00;;
15126;SDS011;7664;52.008;4.748;2023-06-14T13:24:12;1.45;;;0.90;;
15126;SDS011;7664;52.008;4.748;2023-06-14T13:26:41;1.55;;;0.93;;
15126;SDS011;7664;52.008;4.748;2023-06-14T13:29:09;1.30;;;0.95;;
15126;SDS011;7664;52.008;4.748;2023-06-14T13:31:38;1.40;;;0.90;;
15126;SDS011;7664;52.008;4.748;2023-06-14T13:34:08;1.00;;;0.88;;
15126;SDS011;7664;52.008;4.748;2023-06-14T13:36:36;1.13;;;1.00;;
15126;SDS011;7664;52.008;4.748;2023-06-14T13:39:04;1.10;;;0.90;;
15126;SDS011;7664;52.008;4.748;2023-06-14T13:41:33;5.25;;;0.98;;
15126;SDS011;7664;52.008;4.748;2023-06-14T13:44:01;1.60;;;1.10;;
15126;SDS011;7664;52.008;4.748;2023-06-14T13:46:31;3.17;;;1.00;;
15126;SDS011;7664;52.008;4.748;2023-06-14T13:48:59;1.90;;;0.90;;
15126;SDS011;7664;52.008;4.748;2023-06-14T13:51:30;2.05;;;1.00;;
15126;SDS011;7664;52.008;4.748;2023-06-14T13:54:00;1.58;;;1.00;;
15126;SDS011;7664;52.008;4.748;2023-06-14T13:56:29;2.22;;;1.40;;
15126;SDS011;7664;52.008;4.748;2023-06-14T13:58:57;1.20;;;0.65;;
15126;SDS011;7664;52.008;4.748;2023-06-14T14:01:26;1.58;;;1.20;;
15126;SDS011;7664;52.008;4.748;2023-06-14T14:03:55;1.33;;;0.73;;
15126;SDS011;7664;52.008;4.748;2023-06-14T14:06:25;1.25;;;0.98;;
15126;SDS011;7664;52.008;4.748;2023-06-14T14:08:55;5.38;;;1.63;;
15126;SDS011;7664;52.008;4.748;2023-06-14T14:11:23;1.70;;;1.02;;
15126;SDS011;7664;52.008;4.748;2023-06-14T14:13:52;1.23;;;0.90;;
15126;SDS011;7664;52.008;4.748;2023-06-14T14:16:22;1.75;;;1.35;;
15126;SDS011;7664;52.008;4.748;2023-06-14T14:18:51;1.40;;;1.13;;
15126;SDS011;7664;52.008;4.748;2023-06-14T14:21:20;2.45;;;0.90;;
15126;SDS011;7664;52.008;4.748;2023-06-14T14:23:48;2.80;;;1.15;;
15126;SDS011;7664;52.008;4.748;2023-06-14T14:26:19;2.33;;;0.88;;
15126;SDS011;7664;52.008;4.748;2023-06-14T14:28:47;2.00;;;1.08;;
15126;SDS011;7664;52.008;4.748;2023-06-14T14:31:16;1.00;;;0.90;;
15126;SDS011;7664;52.008;4.748;2023-06-14T14:33:44;1.55;;;1.00;;
15126;SDS011;7664;52.008;4.748;2023-06-14T14:36:12;1.70;;;1.15;;
15126;SDS011;7664;52.008;4.748;2023-06-14T14:38:41;3.47;;;0.90;;
15126;SDS011;7664;52.008;4.748;2023-06-14T14:41:09;1.58;;;0.75;;
15126;SDS011;7664;52.008;4.748;2023-06-14T14:43:39;1.33;;;0.80;;
15126;SDS011;7664;52.008;4.748;2023-06-14T14:46:07;1.30;;;0.80;;
15126;SDS011;7664;52.008;4.748;2023-06-14T14:48:36;1.48;;;1.05;;
15126;SDS011;7664;52.008;4.748;2023-06-14T14:51:04;3.75;;;1.50;;
15126;SDS011;7664;52.008;4.748;2023-06-14T14:53:33;2.50;;;0.90;;
15126;SDS011;7664;52.008;4.748;2023-06-14T14:56:07;1.50;;;0.90;;
15126;SDS011;7664;52.008;4.748;2023-06-14T14:58:35;3.28;;;1.10;;
15126;SDS011;7664;52.008;4.748;2023-06-14T15:01:05;4.32;;;0.70;;
15126;SDS011;7664;52.008;4.748;2023-06-14T15:03:34;1.33;;;0.80;;
15126;SDS011;7664;52.008;4.748;2023-06-14T15:06:22;0.85;;;0.70;;
15126;SDS011;7664;52.008;4.748;2023-06-14T15:08:50;2.60;;;0.82;;
15126;SDS011;7664;52.008;4.748;2023-06-14T15:11:19;2.45;;;0.70;;
15126;SDS011;7664;52.008;4.748;2023-06-14T15:13:47;1.98;;;1.55;;
15126;SDS011;7664;52.008;4.748;2023-06-14T15:16:18;4.82;;;0.80;;